sensor_id;sensor_type;location;lat;lon;timestamp;temperature;humidity
15991;DHT22;8100;50.994;4.538;2022-09-20T00:01:46;10.80;99.90
15991;DHT22;8100;50.994;4.538;2022-09-20T00:04:33;10.70;99.90
15991;DHT22;8100;50.994;4.538;2022-09-20T00:07:20;10.40;99.90
15991;DHT22;8100;50.994;4.538;2022-09-20T00:10:07;10.60;99.90
15991;DHT22;8100;50.994;4.538;2022-09-20T00:12:55;10.60;99.90
15991;DHT22;8100;50.994;4.538;2022-09-20T00:15:44;10.40;99.90
15991;DHT22;8100;50.994;4.538;2022-09-20T00:18:33;10.40;99.90
15991;DHT22;8100;50.994;4.538;2022-09-20T00:21:22;10.20;99.90
15991;DHT22;8100;50.994;4.538;2022-09-20T00:24:09;10.50;99.90
15991;DHT22;8100;50.994;4.538;2022-09-20T00:26:56;10.20;99.90
15991;DHT22;8100;50.994;4.538;2022-09-20T00:29:44;10.40;99.90
15991;DHT22;8100;50.994;4.538;2022-09-20T00:32:31;10.10;99.90
15991;DHT22;8100;50.994;4.538;2022-09-20T00:35:19;10.40;99.90
15991;DHT22;8100;50.994;4.538;2022-09-20T00:38:06;10.50;99.90
15991;DHT22;8100;50.994;4.538;2022-09-20T00:40:53;10.30;99.90
15991;DHT22;8100;50.994;4.538;2022-09-20T00:43:41;10.60;99.90
15991;DHT22;8100;50.994;4.538;2022-09-20T00:46:33;10.40;99.90
15991;DHT22;8100;50.994;4.538;2022-09-20T00:49:25;10.40;99.90
15991;DHT22;8100;50.994;4.538;2022-09-20T00:52:15;10.40;99.90
15991;DHT22;8100;50.994;4.538;2022-09-20T00:55:05;10.40;99.90
15991;DHT22;8100;50.994;4.538;2022-09-20T00:57:53;10.50;99.90
15991;DHT22;8100;50.994;4.538;2022-09-20T01:00:42;10.40;99.90
15991;DHT22;8100;50.994;4.538;2022-09-20T01:03:30;10.40;99.90
15991;DHT22;8100;50.994;4.538;2022-09-20T01:06:19;10.50;99.90
15991;DHT22;8100;50.994;4.538;2022-09-20T01:09:08;10.10;99.90
15991;DHT22;8100;50.994;4.538;2022-09-20T01:11:56;10.40;99.90
15991;DHT22;8100;50.994;4.538;2022-09-20T01:14:45;10.50;99.90
15991;DHT22;8100;50.994;4.538;2022-09-20T01:17:36;10.30;99.90
15991;DHT22;8100;50.994;4.538;2022-09-20T01:20:25;10.50;99.90
15991;DHT22;8100;50.994;4.538;2022-09-20T01:26:50;10.50;99.90
15991;DHT22;8100;50.994;4.538;2022-09-20T01:30:01;10.50;99.90
15991;DHT22;8100;50.994;4.538;2022-09-20T01:33:02;10.30;99.90
15991;DHT22;8100;50.994;4.538;2022-09-20T01:35:54;10.60;99.90
15991;DHT22;8100;50.994;4.538;2022-09-20T01:38:51;10.30;99.90
15991;DHT22;8100;50.994;4.538;2022-09-20T01:41:44;10.30;99.90
15991;DHT22;8100;50.994;4.538;2022-09-20T01:44:37;10.60;99.90
15991;DHT22;8100;50.994;4.538;2022-09-20T01:47:31;10.50;99.90
15991;DHT22;8100;50.994;4.538;2022-09-20T01:50:29;10.70;99.90
15991;DHT22;8100;50.994;4.538;2022-09-20T01:53:46;10.60;99.90
15991;DHT22;8100;50.994;4.538;2022-09-20T02:00:02;10.50;99.90
15991;DHT22;8100;50.994;4.538;2022-09-20T02:06:22;10.80;99.90
15991;DHT22;8100;50.994;4.538;2022-09-20T02:09:41;10.60;99.90
15991;DHT22;8100;50.994;4.538;2022-09-20T02:12:46;10.50;99.90
15991;DHT22;8100;50.994;4.538;2022-09-20T02:16:03;10.80;99.90
15991;DHT22;8100;50.994;4.538;2022-09-20T02:19:10;10.60;99.90
15991;DHT22;8100;50.994;4.538;2022-09-20T02:22:18;10.50;99.90
15991;DHT22;8100;50.994;4.538;2022-09-20T02:25:17;10.60;99.90
15991;DHT22;8100;50.994;4.538;2022-09-20T02:28:22;10.90;99.90
15991;DHT22;8100;50.994;4.538;2022-09-20T02:31:15;10.60;99.90
15991;DHT22;8100;50.994;4.538;2022-09-20T02:37:46;10.80;99.90
15991;DHT22;8100;50.994;4.538;2022-09-20T02:41:01;10.80;99.90
15991;DHT22;8100;50.994;4.538;2022-09-20T02:43:55;10.80;99.90
15991;DHT22;8100;50.994;4.538;2022-09-20T02:46:51;10.80;99.90
15991;DHT22;8100;50.994;4.538;2022-09-20T02:49:51;10.60;99.90
15991;DHT22;8100;50.994;4.538;2022-09-20T02:52:48;10.50;99.90
15991;DHT22;8100;50.994;4.538;2022-09-20T02:55:41;10.80;99.90
15991;DHT22;8100;50.994;4.538;2022-09-20T02:58:39;10.70;99.90
15991;DHT22;8100;50.994;4.538;2022-09-20T03:01:37;10.80;99.90
15991;DHT22;8100;50.994;4.538;2022-09-20T03:04:37;10.50;99.90
15991;DHT22;8100;50.994;4.538;2022-09-20T03:07:38;10.80;99.90
15991;DHT22;8100;50.994;4.538;2022-09-20T03:10:33;10.80;99.90
15991;DHT22;8100;50.994;4.538;2022-09-20T03:13:28;10.80;99.90
15991;DHT22;8100;50.994;4.538;2022-09-20T03:16:26;10.70;99.90
15991;DHT22;8100;50.994;4.538;2022-09-20T03:19:28;10.70;99.90
15991;DHT22;8100;50.994;4.538;2022-09-20T03:22:28;10.90;99.90
15991;DHT22;8100;50.994;4.538;2022-09-20T03:25:37;10.70;99.90
15991;DHT22;8100;50.994;4.538;2022-09-20T03:28:37;10.70;99.90
15991;DHT22;8100;50.994;4.538;2022-09-20T03:31:41;10.90;99.90
15991;DHT22;8100;50.994;4.538;2022-09-20T03:34:42;10.90;99.90
15991;DHT22;8100;50.994;4.538;2022-09-20T03:37:47;10.80;99.90
15991;DHT22;8100;50.994;4.538;2022-09-20T03:44:14;10.90;99.90
15991;DHT22;8100;50.994;4.538;2022-09-20T03:47:15;10.90;99.90
15991;DHT22;8100;50.994;4.538;2022-09-20T03:50:30;10.90;99.90
15991;DHT22;8100;50.994;4.538;2022-09-20T03:57:27;10.90;99.90
15991;DHT22;8100;50.994;4.538;2022-09-20T04:00:40;10.80;99.90
15991;DHT22;8100;50.994;4.538;2022-09-20T04:03:35;10.70;99.90
15991;DHT22;8100;50.994;4.538;2022-09-20T04:06:50;10.80;99.90
15991;DHT22;8100;50.994;4.538;2022-09-20T04:10:15;10.60;99.90
15991;DHT22;8100;50.994;4.538;2022-09-20T04:13:29;10.70;99.90
15991;DHT22;8100;50.994;4.538;2022-09-20T04:16:28;10.50;99.90
15991;DHT22;8100;50.994;4.538;2022-09-20T04:19:23;10.50;99.90
15991;DHT22;8100;50.994;4.538;2022-09-20T04:22:12;10.50;99.90
15991;DHT22;8100;50.994;4.538;2022-09-20T04:25:03;10.30;99.90
15991;DHT22;8100;50.994;4.538;2022-09-20T04:27:55;10.50;99.90
15991;DHT22;8100;50.994;4.538;2022-09-20T04:30:44;10.50;99.90
15991;DHT22;8100;50.994;4.538;2022-09-20T04:33:40;10.60;99.90
15991;DHT22;8100;50.994;4.538;2022-09-20T04:36:37;10.20;99.90
15991;DHT22;8100;50.994;4.538;2022-09-20T04:39:40;10.60;99.90
15991;DHT22;8100;50.994;4.538;2022-09-20T04:49:44;10.60;99.90
15991;DHT22;8100;50.994;4.538;2022-09-20T04:56:12;10.50;99.90
15991;DHT22;8100;50.994;4.538;2022-09-20T04:59:06;10.10;99.90
15991;DHT22;8100;50.994;4.538;2022-09-20T05:06:11;10.00;99.90
15991;DHT22;8100;50.994;4.538;2022-09-20T05:09:28;10.20;99.90
15991;DHT22;8100;50.994;4.538;2022-09-20T05:12:33;9.80;99.90
15991;DHT22;8100;50.994;4.538;2022-09-20T05:15:34;9.60;99.90
15991;DHT22;8100;50.994;4.538;2022-09-20T05:18:52;9.90;99.90
15991;DHT22;8100;50.994;4.538;2022-09-20T05:21:58;9.70;99.90
15991;DHT22;8100;50.994;4.538;2022-09-20T05:28:20;9.90;99.90
15991;DHT22;8100;50.994;4.538;2022-09-20T05:31:12;9.60;99.90
15991;DHT22;8100;50.994;4.538;2022-09-20T05:34:07;9.80;99.90
15991;DHT22;8100;50.994;4.538;2022-09-20T05:37:03;9.60;99.90
15991;DHT22;8100;50.994;4.538;2022-09-20T05:39:58;9.80;99.90
15991;DHT22;8100;50.994;4.538;2022-09-20T05:42:52;9.60;99.90
15991;DHT22;8100;50.994;4.538;2022-09-20T05:45:48;9.40;99.90
15991;DHT22;8100;50.994;4.538;2022-09-20T05:48:47;9.70;99.90
15991;DHT22;8100;50.994;4.538;2022-09-20T05:51:51;9.60;99.90
15991;DHT22;8100;50.994;4.538;2022-09-20T05:55:12;9.40;99.90
15991;DHT22;8100;50.994;4.538;2022-09-20T05:58:31;9.50;99.90
15991;DHT22;8100;50.994;4.538;2022-09-20T06:01:25;9.50;99.90
15991;DHT22;8100;50.994;4.538;2022-09-20T06:04:16;9.40;99.90
15991;DHT22;8100;50.994;4.538;2022-09-20T06:07:13;9.90;99.90
15991;DHT22;8100;50.994;4.538;2022-09-20T06:13:34;9.80;99.90
15991;DHT22;8100;50.994;4.538;2022-09-20T06:16:31;9.90;99.90
15991;DHT22;8100;50.994;4.538;2022-09-20T06:19:31;9.80;99.90
15991;DHT22;8100;50.994;4.538;2022-09-20T06:22:23;9.90;99.90
15991;DHT22;8100;50.994;4.538;2022-09-20T06:25:19;10.30;99.90
15991;DHT22;8100;50.994;4.538;2022-09-20T06:28:13;9.80;99.90
15991;DHT22;8100;50.994;4.538;2022-09-20T06:31:01;10.40;99.90
15991;DHT22;8100;50.994;4.538;2022-09-20T06:33:55;10.30;99.90
15991;DHT22;8100;50.994;4.538;2022-09-20T06:36:46;10.40;99.90
15991;DHT22;8100;50.994;4.538;2022-09-20T06:40:00;10.40;99.90
15991;DHT22;8100;50.994;4.538;2022-09-20T06:43:07;10.90;99.90
15991;DHT22;8100;50.994;4.538;2022-09-20T06:45:59;10.90;99.90
15991;DHT22;8100;50.994;4.538;2022-09-20T06:48:46;11.00;99.90
15991;DHT22;8100;50.994;4.538;2022-09-20T06:51:36;11.10;99.90
15991;DHT22;8100;50.994;4.538;2022-09-20T06:54:23;11.00;99.90
15991;DHT22;8100;50.994;4.538;2022-09-20T06:57:15;10.90;99.90
15991;DHT22;8100;50.994;4.538;2022-09-20T07:00:05;11.00;99.90
15991;DHT22;8100;50.994;4.538;2022-09-20T07:02:55;10.90;99.90
15991;DHT22;8100;50.994;4.538;2022-09-20T07:05:42;10.80;99.90
15991;DHT22;8100;50.994;4.538;2022-09-20T07:08:29;10.70;99.90
15991;DHT22;8100;50.994;4.538;2022-09-20T07:11:17;10.80;99.90
15991;DHT22;8100;50.994;4.538;2022-09-20T07:14:04;10.80;99.90
15991;DHT22;8100;50.994;4.538;2022-09-20T07:16:54;10.90;99.90
15991;DHT22;8100;50.994;4.538;2022-09-20T07:19:41;10.90;99.90
15991;DHT22;8100;50.994;4.538;2022-09-20T07:22:28;10.80;99.90
15991;DHT22;8100;50.994;4.538;2022-09-20T07:25:15;10.80;99.90
15991;DHT22;8100;50.994;4.538;2022-09-20T07:28:03;10.80;99.90
15991;DHT22;8100;50.994;4.538;2022-09-20T07:30:51;10.90;99.90
15991;DHT22;8100;50.994;4.538;2022-09-20T07:33:39;11.00;99.90
15991;DHT22;8100;50.994;4.538;2022-09-20T07:36:26;11.10;99.90
15991;DHT22;8100;50.994;4.538;2022-09-20T07:39:14;11.20;99.90
15991;DHT22;8100;50.994;4.538;2022-09-20T07:42:01;11.50;99.90
15991;DHT22;8100;50.994;4.538;2022-09-20T07:44:51;11.80;99.90
15991;DHT22;8100;50.994;4.538;2022-09-20T07:47:39;12.00;99.90
15991;DHT22;8100;50.994;4.538;2022-09-20T07:50:28;12.30;99.90
15991;DHT22;8100;50.994;4.538;2022-09-20T07:53:15;12.50;99.90
15991;DHT22;8100;50.994;4.538;2022-09-20T07:56:04;12.60;99.90
15991;DHT22;8100;50.994;4.538;2022-09-20T07:58:51;12.80;99.90
15991;DHT22;8100;50.994;4.538;2022-09-20T08:01:39;12.80;99.90
15991;DHT22;8100;50.994;4.538;2022-09-20T08:04:27;12.80;99.90
15991;DHT22;8100;50.994;4.538;2022-09-20T08:07:15;12.70;99.90
15991;DHT22;8100;50.994;4.538;2022-09-20T08:10:03;12.50;99.90
15991;DHT22;8100;50.994;4.538;2022-09-20T08:12:51;12.40;99.90
15991;DHT22;8100;50.994;4.538;2022-09-20T08:15:38;12.50;99.90
15991;DHT22;8100;50.994;4.538;2022-09-20T08:18:25;12.40;99.90
15991;DHT22;8100;50.994;4.538;2022-09-20T08:21:13;12.30;99.90
15991;DHT22;8100;50.994;4.538;2022-09-20T08:24:01;12.30;99.90
15991;DHT22;8100;50.994;4.538;2022-09-20T08:26:49;12.40;99.90
15991;DHT22;8100;50.994;4.538;2022-09-20T08:29:37;12.60;99.90
15991;DHT22;8100;50.994;4.538;2022-09-20T08:32:25;12.70;99.90
15991;DHT22;8100;50.994;4.538;2022-09-20T08:35:12;12.90;99.90
15991;DHT22;8100;50.994;4.538;2022-09-20T08:38:00;13.00;99.90
15991;DHT22;8100;50.994;4.538;2022-09-20T08:40:48;13.10;99.90
15991;DHT22;8100;50.994;4.538;2022-09-20T08:43:38;13.30;99.90
15991;DHT22;8100;50.994;4.538;2022-09-20T08:46:28;13.30;99.90
15991;DHT22;8100;50.994;4.538;2022-09-20T08:49:22;13.50;99.90
15991;DHT22;8100;50.994;4.538;2022-09-20T08:52:15;13.60;99.90
15991;DHT22;8100;50.994;4.538;2022-09-20T08:55:12;13.60;99.90
15991;DHT22;8100;50.994;4.538;2022-09-20T08:58:03;13.50;99.90
15991;DHT22;8100;50.994;4.538;2022-09-20T09:00:50;13.60;99.90
15991;DHT22;8100;50.994;4.538;2022-09-20T09:03:37;13.50;99.90
15991;DHT22;8100;50.994;4.538;2022-09-20T09:06:24;13.60;99.90
15991;DHT22;8100;50.994;4.538;2022-09-20T09:09:16;13.70;99.90
15991;DHT22;8100;50.994;4.538;2022-09-20T09:12:04;13.90;99.90
15991;DHT22;8100;50.994;4.538;2022-09-20T09:14:57;14.00;99.90
15991;DHT22;8100;50.994;4.538;2022-09-20T09:17:45;13.80;99.90
15991;DHT22;8100;50.994;4.538;2022-09-20T09:20:39;13.60;99.90
15991;DHT22;8100;50.994;4.538;2022-09-20T09:23:28;13.50;99.90
15991;DHT22;8100;50.994;4.538;2022-09-20T09:26:22;13.40;99.90
15991;DHT22;8100;50.994;4.538;2022-09-20T09:29:17;13.70;99.90
15991;DHT22;8100;50.994;4.538;2022-09-20T09:32:19;14.20;99.90
15991;DHT22;8100;50.994;4.538;2022-09-20T09:35:25;14.40;99.90
15991;DHT22;8100;50.994;4.538;2022-09-20T09:38:17;14.80;99.90
15991;DHT22;8100;50.994;4.538;2022-09-20T09:41:20;14.80;99.90
15991;DHT22;8100;50.994;4.538;2022-09-20T09:44:19;14.80;99.90
15991;DHT22;8100;50.994;4.538;2022-09-20T09:47:24;15.10;99.90
15991;DHT22;8100;50.994;4.538;2022-09-20T09:50:22;15.50;99.90
15991;DHT22;8100;50.994;4.538;2022-09-20T09:53:11;15.50;99.90
15991;DHT22;8100;50.994;4.538;2022-09-20T09:56:26;15.60;99.90
15991;DHT22;8100;50.994;4.538;2022-09-20T09:59:32;15.50;99.90
15991;DHT22;8100;50.994;4.538;2022-09-20T10:06:05;14.90;99.90
15991;DHT22;8100;50.994;4.538;2022-09-20T10:09:05;14.80;99.90
15991;DHT22;8100;50.994;4.538;2022-09-20T10:12:08;14.70;99.90
15991;DHT22;8100;50.994;4.538;2022-09-20T10:15:11;14.60;99.90
15991;DHT22;8100;50.994;4.538;2022-09-20T10:18:20;14.60;99.90
15991;DHT22;8100;50.994;4.538;2022-09-20T10:21:17;14.70;99.90
15991;DHT22;8100;50.994;4.538;2022-09-20T10:24:28;14.80;99.90
15991;DHT22;8100;50.994;4.538;2022-09-20T10:27:27;14.90;99.90
15991;DHT22;8100;50.994;4.538;2022-09-20T10:30:21;15.20;99.90
15991;DHT22;8100;50.994;4.538;2022-09-20T10:33:17;15.70;99.90
15991;DHT22;8100;50.994;4.538;2022-09-20T10:36:16;16.10;99.90
15991;DHT22;8100;50.994;4.538;2022-09-20T10:39:11;16.20;99.90
15991;DHT22;8100;50.994;4.538;2022-09-20T10:42:07;16.20;99.90
15991;DHT22;8100;50.994;4.538;2022-09-20T10:45:20;16.30;99.90
15991;DHT22;8100;50.994;4.538;2022-09-20T10:48:17;16.50;99.90
15991;DHT22;8100;50.994;4.538;2022-09-20T10:51:11;16.90;99.90
15991;DHT22;8100;50.994;4.538;2022-09-20T10:54:06;16.60;99.90
15991;DHT22;8100;50.994;4.538;2022-09-20T10:57:04;16.60;99.90
15991;DHT22;8100;50.994;4.538;2022-09-20T10:59:59;16.80;99.90
15991;DHT22;8100;50.994;4.538;2022-09-20T11:03:07;16.70;99.90
15991;DHT22;8100;50.994;4.538;2022-09-20T11:06:09;16.80;99.90
15991;DHT22;8100;50.994;4.538;2022-09-20T11:08:59;16.70;99.90
15991;DHT22;8100;50.994;4.538;2022-09-20T11:11:49;16.50;99.90
15991;DHT22;8100;50.994;4.538;2022-09-20T11:14:41;16.50;99.90
15991;DHT22;8100;50.994;4.538;2022-09-20T11:17:33;16.80;99.90
15991;DHT22;8100;50.994;4.538;2022-09-20T11:20:25;16.80;99.90
15991;DHT22;8100;50.994;4.538;2022-09-20T11:23:20;16.70;99.90
15991;DHT22;8100;50.994;4.538;2022-09-20T11:26:10;16.60;99.90
15991;DHT22;8100;50.994;4.538;2022-09-20T11:29:03;16.30;99.90
15991;DHT22;8100;50.994;4.538;2022-09-20T11:31:59;16.20;99.90
15991;DHT22;8100;50.994;4.538;2022-09-20T11:34:50;16.20;99.90
15991;DHT22;8100;50.994;4.538;2022-09-20T11:37:44;16.20;99.90
15991;DHT22;8100;50.994;4.538;2022-09-20T11:40:37;16.20;99.90
15991;DHT22;8100;50.994;4.538;2022-09-20T11:43:27;16.40;99.90
15991;DHT22;8100;50.994;4.538;2022-09-20T11:46:19;16.50;99.90
15991;DHT22;8100;50.994;4.538;2022-09-20T11:49:12;16.80;99.90
15991;DHT22;8100;50.994;4.538;2022-09-20T11:52:22;16.60;99.90
15991;DHT22;8100;50.994;4.538;2022-09-20T11:55:27;16.70;99.90
15991;DHT22;8100;50.994;4.538;2022-09-20T11:58:19;16.50;99.90
15991;DHT22;8100;50.994;4.538;2022-09-20T12:01:11;16.40;99.90
15991;DHT22;8100;50.994;4.538;2022-09-20T12:04:01;16.60;99.90
15991;DHT22;8100;50.994;4.538;2022-09-20T12:06:57;16.80;99.90
15991;DHT22;8100;50.994;4.538;2022-09-20T12:09:51;16.90;99.90
15991;DHT22;8100;50.994;4.538;2022-09-20T12:12:42;16.80;99.90
15991;DHT22;8100;50.994;4.538;2022-09-20T12:15:33;16.70;99.90
15991;DHT22;8100;50.994;4.538;2022-09-20T12:18:37;16.80;99.90
15991;DHT22;8100;50.994;4.538;2022-09-20T12:25:35;17.20;99.90
15991;DHT22;8100;50.994;4.538;2022-09-20T12:28:32;17.20;99.90
15991;DHT22;8100;50.994;4.538;2022-09-20T12:31:46;17.50;99.90
15991;DHT22;8100;50.994;4.538;2022-09-20T12:34:35;17.90;99.90
15991;DHT22;8100;50.994;4.538;2022-09-20T12:37:23;18.20;99.90
15991;DHT22;8100;50.994;4.538;2022-09-20T12:40:14;18.30;99.90
15991;DHT22;8100;50.994;4.538;2022-09-20T12:43:03;18.70;99.90
15991;DHT22;8100;50.994;4.538;2022-09-20T12:45:52;18.30;99.90
15991;DHT22;8100;50.994;4.538;2022-09-20T12:48:41;18.30;99.90
15991;DHT22;8100;50.994;4.538;2022-09-20T12:51:31;18.00;99.90
15991;DHT22;8100;50.994;4.538;2022-09-20T12:54:49;17.40;99.90
15991;DHT22;8100;50.994;4.538;2022-09-20T12:57:37;17.10;99.90
15991;DHT22;8100;50.994;4.538;2022-09-20T13:00:30;17.20;99.90
15991;DHT22;8100;50.994;4.538;2022-09-20T13:03:23;17.20;99.90
15991;DHT22;8100;50.994;4.538;2022-09-20T13:06:32;17.20;99.90
15991;DHT22;8100;50.994;4.538;2022-09-20T13:09:19;17.50;99.90
15991;DHT22;8100;50.994;4.538;2022-09-20T13:12:07;17.80;99.90
15991;DHT22;8100;50.994;4.538;2022-09-20T13:14:55;18.00;99.90
15991;DHT22;8100;50.994;4.538;2022-09-20T13:17:43;18.00;99.90
15991;DHT22;8100;50.994;4.538;2022-09-20T13:20:32;17.70;99.90
15991;DHT22;8100;50.994;4.538;2022-09-20T13:23:24;17.60;99.90
15991;DHT22;8100;50.994;4.538;2022-09-20T13:26:13;17.50;99.90
15991;DHT22;8100;50.994;4.538;2022-09-20T13:29:02;17.50;99.90
15991;DHT22;8100;50.994;4.538;2022-09-20T13:31:50;17.40;99.90
15991;DHT22;8100;50.994;4.538;2022-09-20T13:34:37;17.30;99.90
15991;DHT22;8100;50.994;4.538;2022-09-20T13:37:24;17.30;99.90
15991;DHT22;8100;50.994;4.538;2022-09-20T13:40:18;17.50;99.90
15991;DHT22;8100;50.994;4.538;2022-09-20T13:43:25;17.50;99.90
15991;DHT22;8100;50.994;4.538;2022-09-20T13:46:15;17.50;99.90
15991;DHT22;8100;50.994;4.538;2022-09-20T13:49:16;17.50;99.90
15991;DHT22;8100;50.994;4.538;2022-09-20T13:52:19;17.50;99.90
15991;DHT22;8100;50.994;4.538;2022-09-20T13:55:24;17.30;99.90
15991;DHT22;8100;50.994;4.538;2022-09-20T13:58:18;17.50;99.90
15991;DHT22;8100;50.994;4.538;2022-09-20T14:01:20;17.50;99.90
15991;DHT22;8100;50.994;4.538;2022-09-20T14:04:14;17.30;99.90
15991;DHT22;8100;50.994;4.538;2022-09-20T14:07:05;17.10;99.90
15991;DHT22;8100;50.994;4.538;2022-09-20T14:09:53;17.30;99.90
15991;DHT22;8100;50.994;4.538;2022-09-20T14:12:43;17.30;99.90
15991;DHT22;8100;50.994;4.538;2022-09-20T14:15:34;17.10;99.90
15991;DHT22;8100;50.994;4.538;2022-09-20T14:18:22;16.90;99.90
15991;DHT22;8100;50.994;4.538;2022-09-20T14:21:10;16.70;99.90
15991;DHT22;8100;50.994;4.538;2022-09-20T14:23:59;16.80;99.90
15991;DHT22;8100;50.994;4.538;2022-09-20T14:27:00;16.70;99.90
15991;DHT22;8100;50.994;4.538;2022-09-20T14:29:50;16.70;99.90
15991;DHT22;8100;50.994;4.538;2022-09-20T14:32:41;16.50;99.90
15991;DHT22;8100;50.994;4.538;2022-09-20T14:35:30;16.50;99.90
15991;DHT22;8100;50.994;4.538;2022-09-20T14:38:21;16.50;99.90
15991;DHT22;8100;50.994;4.538;2022-09-20T14:41:10;16.50;99.90
15991;DHT22;8100;50.994;4.538;2022-09-20T14:43:58;16.30;99.90
15991;DHT22;8100;50.994;4.538;2022-09-20T14:46:48;16.20;99.90
15991;DHT22;8100;50.994;4.538;2022-09-20T14:49:39;15.90;99.90
15991;DHT22;8100;50.994;4.538;2022-09-20T14:52:38;15.90;99.90
15991;DHT22;8100;50.994;4.538;2022-09-20T14:55:30;15.90;99.90
15991;DHT22;8100;50.994;4.538;2022-09-20T14:58:18;16.10;99.90
15991;DHT22;8100;50.994;4.538;2022-09-20T15:01:17;16.00;99.90
15991;DHT22;8100;50.994;4.538;2022-09-20T15:04:15;15.70;99.90
15991;DHT22;8100;50.994;4.538;2022-09-20T15:07:05;15.80;99.90
15991;DHT22;8100;50.994;4.538;2022-09-20T15:09:53;15.80;99.90
15991;DHT22;8100;50.994;4.538;2022-09-20T15:12:40;15.70;99.90
15991;DHT22;8100;50.994;4.538;2022-09-20T15:15:28;15.70;99.90
15991;DHT22;8100;50.994;4.538;2022-09-20T15:18:19;15.70;99.90
15991;DHT22;8100;50.994;4.538;2022-09-20T15:21:09;15.70;99.90
15991;DHT22;8100;50.994;4.538;2022-09-20T15:23:56;15.90;99.90
15991;DHT22;8100;50.994;4.538;2022-09-20T15:26:44;15.90;99.90
15991;DHT22;8100;50.994;4.538;2022-09-20T15:29:31;15.80;99.90
15991;DHT22;8100;50.994;4.538;2022-09-20T15:32:19;15.80;99.90
15991;DHT22;8100;50.994;4.538;2022-09-20T15:35:06;17.50;99.90
15991;DHT22;8100;50.994;4.538;2022-09-20T15:37:55;17.80;99.90
15991;DHT22;8100;50.994;4.538;2022-09-20T15:40:44;17.60;99.90
15991;DHT22;8100;50.994;4.538;2022-09-20T15:43:32;18.80;99.90
15991;DHT22;8100;50.994;4.538;2022-09-20T15:46:21;18.50;99.90
15991;DHT22;8100;50.994;4.538;2022-09-20T15:49:10;18.80;99.90
15991;DHT22;8100;50.994;4.538;2022-09-20T15:51:58;20.00;99.90
15991;DHT22;8100;50.994;4.538;2022-09-20T15:54:47;20.10;99.90
15991;DHT22;8100;50.994;4.538;2022-09-20T15:57:35;19.30;99.90
15991;DHT22;8100;50.994;4.538;2022-09-20T16:00:22;19.00;99.90
15991;DHT22;8100;50.994;4.538;2022-09-20T16:03:09;18.90;99.90
15991;DHT22;8100;50.994;4.538;2022-09-20T16:05:58;18.90;99.90
15991;DHT22;8100;50.994;4.538;2022-09-20T16:08:46;18.70;99.90
15991;DHT22;8100;50.994;4.538;2022-09-20T16:11:45;18.60;99.90
15991;DHT22;8100;50.994;4.538;2022-09-20T16:14:33;18.20;99.90
15991;DHT22;8100;50.994;4.538;2022-09-20T16:17:20;18.20;99.90
15991;DHT22;8100;50.994;4.538;2022-09-20T16:20:28;18.10;99.90
15991;DHT22;8100;50.994;4.538;2022-09-20T16:23:14;18.60;99.90
15991;DHT22;8100;50.994;4.538;2022-09-20T16:26:02;19.20;99.90
15991;DHT22;8100;50.994;4.538;2022-09-20T16:28:51;19.70;99.90
15991;DHT22;8100;50.994;4.538;2022-09-20T16:31:40;19.40;99.90
15991;DHT22;8100;50.994;4.538;2022-09-20T16:34:29;18.50;99.90
15991;DHT22;8100;50.994;4.538;2022-09-20T16:37:17;17.80;99.90
15991;DHT22;8100;50.994;4.538;2022-09-20T16:40:05;17.40;99.90
15991;DHT22;8100;50.994;4.538;2022-09-20T16:42:53;17.20;99.90
15991;DHT22;8100;50.994;4.538;2022-09-20T16:45:44;16.90;99.90
15991;DHT22;8100;50.994;4.538;2022-09-20T16:48:32;16.40;99.90
15991;DHT22;8100;50.994;4.538;2022-09-20T16:51:21;16.30;99.90
15991;DHT22;8100;50.994;4.538;2022-09-20T16:54:13;16.00;99.90
15991;DHT22;8100;50.994;4.538;2022-09-20T16:57:01;15.80;99.90
15991;DHT22;8100;50.994;4.538;2022-09-20T16:59:48;15.50;99.90
15991;DHT22;8100;50.994;4.538;2022-09-20T17:02:43;15.40;99.90
15991;DHT22;8100;50.994;4.538;2022-09-20T17:05:32;15.30;99.90
15991;DHT22;8100;50.994;4.538;2022-09-20T17:08:21;15.10;99.90
15991;DHT22;8100;50.994;4.538;2022-09-20T17:11:10;14.90;99.90
15991;DHT22;8100;50.994;4.538;2022-09-20T17:13:59;14.70;99.90
15991;DHT22;8100;50.994;4.538;2022-09-20T17:16:47;14.50;99.90
15991;DHT22;8100;50.994;4.538;2022-09-20T17:19:37;14.40;99.90
15991;DHT22;8100;50.994;4.538;2022-09-20T17:22:25;14.30;99.90
15991;DHT22;8100;50.994;4.538;2022-09-20T17:25:12;14.20;99.90
15991;DHT22;8100;50.994;4.538;2022-09-20T17:28:01;14.10;99.90
15991;DHT22;8100;50.994;4.538;2022-09-20T17:30:50;14.00;99.90
15991;DHT22;8100;50.994;4.538;2022-09-20T17:33:38;14.00;99.90
15991;DHT22;8100;50.994;4.538;2022-09-20T17:36:29;13.90;99.90
15991;DHT22;8100;50.994;4.538;2022-09-20T17:39:23;13.70;99.90
15991;DHT22;8100;50.994;4.538;2022-09-20T17:42:11;13.60;99.90
15991;DHT22;8100;50.994;4.538;2022-09-20T17:44:59;13.50;99.90
15991;DHT22;8100;50.994;4.538;2022-09-20T17:47:47;13.30;99.90
15991;DHT22;8100;50.994;4.538;2022-09-20T17:50:34;13.10;99.90
15991;DHT22;8100;50.994;4.538;2022-09-20T17:53:23;13.10;99.90
15991;DHT22;8100;50.994;4.538;2022-09-20T17:56:11;13.00;99.90
15991;DHT22;8100;50.994;4.538;2022-09-20T17:59:00;12.90;99.90
15991;DHT22;8100;50.994;4.538;2022-09-20T18:01:48;12.80;99.90
15991;DHT22;8100;50.994;4.538;2022-09-20T18:04:36;12.70;99.90
15991;DHT22;8100;50.994;4.538;2022-09-20T18:07:23;12.80;99.90
15991;DHT22;8100;50.994;4.538;2022-09-20T18:10:12;12.60;99.90
15991;DHT22;8100;50.994;4.538;2022-09-20T18:13:00;12.50;99.90
15991;DHT22;8100;50.994;4.538;2022-09-20T18:15:48;12.40;99.90
15991;DHT22;8100;50.994;4.538;2022-09-20T18:18:37;12.30;99.90
15991;DHT22;8100;50.994;4.538;2022-09-20T18:21:25;12.40;99.90
15991;DHT22;8100;50.994;4.538;2022-09-20T18:24:13;12.20;99.90
15991;DHT22;8100;50.994;4.538;2022-09-20T18:27:02;12.10;99.90
15991;DHT22;8100;50.994;4.538;2022-09-20T18:29:49;12.10;99.90
15991;DHT22;8100;50.994;4.538;2022-09-20T18:32:36;12.10;99.90
15991;DHT22;8100;50.994;4.538;2022-09-20T18:35:24;12.10;99.90
15991;DHT22;8100;50.994;4.538;2022-09-20T18:38:12;12.00;99.90
15991;DHT22;8100;50.994;4.538;2022-09-20T18:41:03;11.90;99.90
15991;DHT22;8100;50.994;4.538;2022-09-20T18:43:52;11.80;99.90
15991;DHT22;8100;50.994;4.538;2022-09-20T18:46:40;11.80;99.90
15991;DHT22;8100;50.994;4.538;2022-09-20T18:49:27;11.80;99.90
15991;DHT22;8100;50.994;4.538;2022-09-20T18:52:15;11.60;99.90
15991;DHT22;8100;50.994;4.538;2022-09-20T18:55:11;11.60;99.90
15991;DHT22;8100;50.994;4.538;2022-09-20T18:58:00;11.50;99.90
15991;DHT22;8100;50.994;4.538;2022-09-20T19:00:57;11.50;99.90
15991;DHT22;8100;50.994;4.538;2022-09-20T19:03:54;11.30;99.90
15991;DHT22;8100;50.994;4.538;2022-09-20T19:06:51;11.30;99.90
15991;DHT22;8100;50.994;4.538;2022-09-20T19:09:47;11.30;99.90
15991;DHT22;8100;50.994;4.538;2022-09-20T19:12:38;11.10;99.90
15991;DHT22;8100;50.994;4.538;2022-09-20T19:15:37;11.20;99.90
15991;DHT22;8100;50.994;4.538;2022-09-20T19:18:53;11.10;99.90
15991;DHT22;8100;50.994;4.538;2022-09-20T19:21:52;11.10;99.90
15991;DHT22;8100;50.994;4.538;2022-09-20T19:24:52;11.10;99.90
15991;DHT22;8100;50.994;4.538;2022-09-20T19:27:41;10.90;99.90